Main page
METAR-TAF:

METAR-TAF

Airports :

RAF Benson

Benson, England

latitude: 51-37N, longitude: 001-05W, elevation: 63 m

Current weather observation

The report was made 35 minutes ago, at 19:20 UTC
Wind 6 kt from the North/Northeast
Temperature 18°C
Humidity 56%
Pressure 1021 hPa
Visibility 10 km or more
Few clouds at a height of 4200 ft

METAR: EGUB 191920Z 03006KT 9999 FEW042 18/09 Q1021 NOSIG RMK BLU BLU

Time: 20:55 (19:55 UTC)

Forecast

The report was made 2 hours and 22 minutes ago, at 17:33 UTC
Forecast valid from 19 at 18 UTC to 20 at 03 UTC
Wind 8 kt from the Northeast
Visibility 10 km or more
Few clouds at a height of 4500 ft

TAF: EGUB 191733Z 1918/2003 05008KT 9999 FEW045

Weather observations and forecasts of more than 4000 airports (METAR and TAF reports).

The available stations are represented by yellow and red dots on the map.

Hover mouse over dot to see the name of the station.

Then click to see weather observations and forecasts.

To change the map : click on the green buttons with a black cross to zoom in, on the green button with a dash to zoom out, or on the green arrows for adjacent maps.


METAR-TAF: